Zoersel, Belgium
Current Conditions -  °F | °C
As of 9:20 PM on Monday 26 Jan 2015 (Local Time) from EBAW Reporting Station
Broken Clouds Broken Clouds  
Wind Chill: 37°   Ceiling: 4200
Heat Index: 45°   Visibility: 6mi
Dew Point: 36°   Wind: 17mph
Humidity: 71%   Direction: 320°NW
Pressure: 30.18"   Gusts: NA
Location:  51.27°N, 4.71°E
Report Text: EBAW 262020Z 32015KT 9999 BKN042 07/02 Q1022 NOSIG
Loading
Personal Weather Stations






























Interactive Weather Map New forecast layout! Learn more

10-Day Weather Forecast

Advertisements
Track Severe Weather on mobile